createdAt,value
2022-10-11T00:05:08.360Z,100589.63
2022-10-11T00:15:12.522Z,100595.38
2022-10-11T00:25:14.322Z,100590.94
2022-10-11T00:35:16.120Z,100587.97
2022-10-11T00:45:27.100Z,100587.00
2022-10-11T00:55:32.595Z,100583.13
2022-10-11T01:05:36.491Z,100583.72
2022-10-11T01:15:50.820Z,100596.88
2022-10-11T01:26:11.461Z,100590.72
2022-10-11T01:36:32.388Z,100600.56
2022-10-11T01:46:34.704Z,100593.41
2022-10-11T01:56:55.013Z,100594.16
2022-10-11T02:12:42.912Z,100598.44
2022-10-11T02:28:20.699Z,100578.69
2022-10-11T02:44:03.662Z,100585.53
2022-10-11T02:59:39.021Z,100584.63
2022-10-11T03:15:16.571Z,100580.22
2022-10-11T03:30:51.987Z,100587.25
2022-10-11T03:46:28.955Z,100587.53
2022-10-11T04:02:06.043Z,100589.44
2022-10-11T04:23:17.578Z,100599.19
2022-10-11T04:38:56.455Z,100604.97
2022-10-11T04:54:31.136Z,100605.31
2022-10-11T05:10:07.188Z,100597.38
2022-10-11T05:31:33.239Z,100590.78
2022-10-11T05:47:08.024Z,100613.34
2022-10-11T15:09:24.961Z,100337.91
2022-10-11T15:19:27.167Z,100326.25
2022-10-11T15:39:47.523Z,100339.31
2022-10-11T15:49:52.251Z,100340.13
2022-10-11T15:59:56.618Z,100350.94
2022-10-11T16:09:58.463Z,100352.84
2022-10-11T16:20:00.523Z,100351.69
2022-10-11T16:30:02.412Z,100360.06
2022-10-11T16:40:05.373Z,100360.50
2022-10-11T16:50:07.882Z,100362.66
2022-10-11T17:00:09.951Z,100365.47
2022-10-11T17:10:11.844Z,100362.16
2022-10-11T17:20:13.542Z,100354.47
2022-10-11T17:30:15.759Z,100345.09
2022-10-11T17:40:17.705Z,100353.03
2022-10-11T17:50:19.430Z,100344.91
2022-10-11T18:00:21.158Z,100343.13
2022-10-11T18:10:58.039Z,100349.94
2022-10-11T18:21:08.455Z,100344.38
2022-10-11T18:41:48.673Z,100346.94
2022-10-11T18:51:50.783Z,100344.00
2022-10-11T19:01:52.801Z,100347.91
2022-10-11T19:11:55.774Z,100347.06
2022-10-11T19:21:57.455Z,100354.16
2022-10-11T19:32:00.282Z,100345.28
2022-10-11T19:42:02.636Z,100343.50
2022-10-11T19:52:05.381Z,100330.72
2022-10-11T20:02:09.403Z,100334.59
2022-10-11T20:12:11.097Z,100327.09
2022-10-11T20:22:12.883Z,100325.66
2022-10-11T20:32:14.551Z,100318.84
2022-10-11T20:42:16.212Z,100315.88
2022-10-11T20:52:17.851Z,100322.03
2022-10-11T21:02:19.659Z,100310.44
2022-10-11T21:12:21.404Z,100308.09
2022-10-11T21:22:23.069Z,100303.63
2022-10-11T21:32:24.780Z,100298.28
2022-10-11T21:42:29.563Z,100295.13
2022-10-11T21:52:31.478Z,100290.69
2022-10-11T22:02:33.454Z,100291.31
2022-10-11T22:12:35.619Z,100297.22
2022-10-11T22:22:37.885Z,100308.75
2022-10-11T22:32:39.873Z,100305.09
2022-10-11T22:42:41.523Z,100305.75
2022-10-11T22:52:43.266Z,100308.59
2022-10-11T23:02:45.007Z,100302.22
2022-10-11T23:12:46.714Z,100309.31
2022-10-11T23:22:48.357Z,100314.72
2022-10-11T23:32:50.000Z,100318.88
2022-10-11T23:42:51.672Z,100319.72
2022-10-11T23:52:53.390Z,100324.63
